sensor_id;sensor_type;location;lat;lon;timestamp;temperature;humidity
1381;DHT22;684;48.342;10.096;2023-04-06T00:00:06;3.30;14.20
1381;DHT22;684;48.342;10.096;2023-04-06T00:02:34;3.20;14.50
1381;DHT22;684;48.342;10.096;2023-04-06T00:05:01;3.20;14.70
1381;DHT22;684;48.342;10.096;2023-04-06T00:07:28;3.20;14.80
1381;DHT22;684;48.342;10.096;2023-04-06T00:09:55;3.10;15.00
1381;DHT22;684;48.342;10.096;2023-04-06T00:12:22;3.10;15.20
1381;DHT22;684;48.342;10.096;2023-04-06T00:14:50;3.00;15.30
1381;DHT22;684;48.342;10.096;2023-04-06T00:17:18;3.00;15.30
1381;DHT22;684;48.342;10.096;2023-04-06T00:19:45;3.00;16.00
1381;DHT22;684;48.342;10.096;2023-04-06T00:22:11;2.90;16.10
1381;DHT22;684;48.342;10.096;2023-04-06T00:24:38;2.90;16.20
1381;DHT22;684;48.342;10.096;2023-04-06T00:27:05;2.80;16.40
1381;DHT22;684;48.342;10.096;2023-04-06T00:29:32;2.80;16.60
1381;DHT22;684;48.342;10.096;2023-04-06T00:32:00;2.70;16.80
1381;DHT22;684;48.342;10.096;2023-04-06T00:34:27;2.70;17.00
1381;DHT22;684;48.342;10.096;2023-04-06T00:36:53;2.70;17.00
1381;DHT22;684;48.342;10.096;2023-04-06T00:39:21;2.60;17.00
1381;DHT22;684;48.342;10.096;2023-04-06T00:41:50;2.60;16.90
1381;DHT22;684;48.342;10.096;2023-04-06T00:44:18;2.60;17.30
1381;DHT22;684;48.342;10.096;2023-04-06T00:46:44;2.50;17.60
1381;DHT22;684;48.342;10.096;2023-04-06T00:49:13;2.50;17.70
1381;DHT22;684;48.342;10.096;2023-04-06T00:51:40;2.40;17.80
1381;DHT22;684;48.342;10.096;2023-04-06T00:54:06;2.40;17.90
1381;DHT22;684;48.342;10.096;2023-04-06T00:56:34;2.40;17.90
1381;DHT22;684;48.342;10.096;2023-04-06T00:59:02;2.40;17.90
1381;DHT22;684;48.342;10.096;2023-04-06T01:01:29;2.40;18.00
1381;DHT22;684;48.342;10.096;2023-04-06T01:03:58;2.40;18.20
1381;DHT22;684;48.342;10.096;2023-04-06T01:06:26;2.50;18.40
1381;DHT22;684;48.342;10.096;2023-04-06T01:08:53;2.40;18.70
1381;DHT22;684;48.342;10.096;2023-04-06T01:11:20;2.40;18.90
1381;DHT22;684;48.342;10.096;2023-04-06T01:13:46;2.40;18.70
1381;DHT22;684;48.342;10.096;2023-04-06T01:16:13;2.40;18.60
1381;DHT22;684;48.342;10.096;2023-04-06T01:18:40;2.40;18.60
1381;DHT22;684;48.342;10.096;2023-04-06T01:21:08;2.40;18.60
1381;DHT22;684;48.342;10.096;2023-04-06T01:23:42;2.40;19.10
1381;DHT22;684;48.342;10.096;2023-04-06T01:26:09;2.40;19.10
1381;DHT22;684;48.342;10.096;2023-04-06T01:28:36;2.30;19.50
1381;DHT22;684;48.342;10.096;2023-04-06T01:31:04;2.30;19.80
1381;DHT22;684;48.342;10.096;2023-04-06T01:33:31;2.30;19.80
1381;DHT22;684;48.342;10.096;2023-04-06T01:35:57;2.20;19.80
1381;DHT22;684;48.342;10.096;2023-04-06T01:38:25;2.20;19.80
1381;DHT22;684;48.342;10.096;2023-04-06T01:40:53;2.10;19.70
1381;DHT22;684;48.342;10.096;2023-04-06T01:43:20;2.10;19.70
1381;DHT22;684;48.342;10.096;2023-04-06T01:45:47;2.10;19.50
1381;DHT22;684;48.342;10.096;2023-04-06T01:48:14;2.10;20.50
1381;DHT22;684;48.342;10.096;2023-04-06T01:50:40;2.10;20.50
1381;DHT22;684;48.342;10.096;2023-04-06T01:53:07;2.10;20.10
1381;DHT22;684;48.342;10.096;2023-04-06T01:55:34;2.20;20.00
1381;DHT22;684;48.342;10.096;2023-04-06T01:58:02;2.10;19.80
1381;DHT22;684;48.342;10.096;2023-04-06T02:00:29;2.00;19.80
1381;DHT22;684;48.342;10.096;2023-04-06T02:02:56;1.90;20.50
1381;DHT22;684;48.342;10.096;2023-04-06T02:05:23;1.80;20.00
1381;DHT22;684;48.342;10.096;2023-04-06T02:07:49;1.70;20.00
1381;DHT22;684;48.342;10.096;2023-04-06T02:10:17;1.60;20.00
1381;DHT22;684;48.342;10.096;2023-04-06T02:12:43;1.60;19.80
1381;DHT22;684;48.342;10.096;2023-04-06T02:15:12;1.60;20.10
1381;DHT22;684;48.342;10.096;2023-04-06T02:17:39;1.50;20.60
1381;DHT22;684;48.342;10.096;2023-04-06T02:20:06;1.50;20.60
1381;DHT22;684;48.342;10.096;2023-04-06T02:22:33;1.40;20.60
1381;DHT22;684;48.342;10.096;2023-04-06T02:25:00;1.40;20.50
1381;DHT22;684;48.342;10.096;2023-04-06T02:27:27;1.40;20.80
1381;DHT22;684;48.342;10.096;2023-04-06T02:29:54;1.30;20.70
1381;DHT22;684;48.342;10.096;2023-04-06T02:32:22;1.40;20.40
1381;DHT22;684;48.342;10.096;2023-04-06T02:34:49;1.40;20.50
1381;DHT22;684;48.342;10.096;2023-04-06T02:37:16;1.50;20.60
1381;DHT22;684;48.342;10.096;2023-04-06T02:39:42;1.50;20.90
1381;DHT22;684;48.342;10.096;2023-04-06T02:42:09;1.50;21.00
1381;DHT22;684;48.342;10.096;2023-04-06T02:44:36;1.60;20.90
1381;DHT22;684;48.342;10.096;2023-04-06T02:47:03;1.60;20.80
1381;DHT22;684;48.342;10.096;2023-04-06T02:49:31;1.60;20.50
1381;DHT22;684;48.342;10.096;2023-04-06T02:51:58;1.70;20.40
1381;DHT22;684;48.342;10.096;2023-04-06T02:54:24;1.70;20.90
1381;DHT22;684;48.342;10.096;2023-04-06T02:56:51;1.70;20.30
1381;DHT22;684;48.342;10.096;2023-04-06T02:59:18;1.60;20.40
1381;DHT22;684;48.342;10.096;2023-04-06T03:01:45;1.50;20.50
1381;DHT22;684;48.342;10.096;2023-04-06T03:04:12;1.40;21.10
1381;DHT22;684;48.342;10.096;2023-04-06T03:06:40;1.40;20.90
1381;DHT22;684;48.342;10.096;2023-04-06T03:09:06;1.30;21.70
1381;DHT22;684;48.342;10.096;2023-04-06T03:11:33;1.30;21.70
1381;DHT22;684;48.342;10.096;2023-04-06T03:14:00;1.30;21.40
1381;DHT22;684;48.342;10.096;2023-04-06T03:16:27;1.20;21.90
1381;DHT22;684;48.342;10.096;2023-04-06T03:18:53;1.20;21.90
1381;DHT22;684;48.342;10.096;2023-04-06T03:21:20;1.20;22.10
1381;DHT22;684;48.342;10.096;2023-04-06T03:23:48;1.20;22.20
1381;DHT22;684;48.342;10.096;2023-04-06T03:26:16;1.10;22.90
1381;DHT22;684;48.342;10.096;2023-04-06T03:28:43;1.10;22.70
1381;DHT22;684;48.342;10.096;2023-04-06T03:31:09;1.10;22.20
1381;DHT22;684;48.342;10.096;2023-04-06T03:33:36;1.10;22.40
1381;DHT22;684;48.342;10.096;2023-04-06T03:36:04;1.00;22.60
1381;DHT22;684;48.342;10.096;2023-04-06T03:38:31;1.00;22.40
1381;DHT22;684;48.342;10.096;2023-04-06T03:40:59;1.00;22.20
1381;DHT22;684;48.342;10.096;2023-04-06T03:43:26;1.00;22.20
1381;DHT22;684;48.342;10.096;2023-04-06T03:45:52;1.00;22.00
1381;DHT22;684;48.342;10.096;2023-04-06T03:48:19;1.00;22.10
1381;DHT22;684;48.342;10.096;2023-04-06T03:50:46;1.00;22.10
1381;DHT22;684;48.342;10.096;2023-04-06T03:53:13;1.00;22.10
1381;DHT22;684;48.342;10.096;2023-04-06T03:55:39;1.00;22.40
1381;DHT22;684;48.342;10.096;2023-04-06T03:58:08;1.00;22.40
1381;DHT22;684;48.342;10.096;2023-04-06T04:00:34;1.10;22.40
1381;DHT22;684;48.342;10.096;2023-04-06T04:03:01;1.00;22.90
1381;DHT22;684;48.342;10.096;2023-04-06T04:05:28;1.00;22.20
1381;DHT22;684;48.342;10.096;2023-04-06T04:07:55;1.00;22.30
1381;DHT22;684;48.342;10.096;2023-04-06T04:10:21;1.00;22.30
1381;DHT22;684;48.342;10.096;2023-04-06T04:12:48;1.00;22.50
1381;DHT22;684;48.342;10.096;2023-04-06T04:15:16;1.00;22.70
1381;DHT22;684;48.342;10.096;2023-04-06T04:17:43;1.10;23.00
1381;DHT22;684;48.342;10.096;2023-04-06T04:20:12;1.10;23.00
1381;DHT22;684;48.342;10.096;2023-04-06T04:22:40;1.20;23.70
1381;DHT22;684;48.342;10.096;2023-04-06T04:25:07;1.20;22.70
1381;DHT22;684;48.342;10.096;2023-04-06T04:27:34;1.20;22.80
1381;DHT22;684;48.342;10.096;2023-04-06T04:30:01;1.10;23.00
1381;DHT22;684;48.342;10.096;2023-04-06T04:32:29;1.20;23.30
1381;DHT22;684;48.342;10.096;2023-04-06T04:34:56;1.10;23.30
1381;DHT22;684;48.342;10.096;2023-04-06T04:37:23;1.10;23.10
1381;DHT22;684;48.342;10.096;2023-04-06T04:39:49;1.10;23.10
1381;DHT22;684;48.342;10.096;2023-04-06T04:42:16;1.10;23.30
1381;DHT22;684;48.342;10.096;2023-04-06T04:44:43;1.10;23.40
1381;DHT22;684;48.342;10.096;2023-04-06T04:47:10;1.10;23.50
1381;DHT22;684;48.342;10.096;2023-04-06T04:49:38;1.00;23.50
1381;DHT22;684;48.342;10.096;2023-04-06T04:52:04;1.10;23.90
1381;DHT22;684;48.342;10.096;2023-04-06T04:54:31;1.00;23.90
1381;DHT22;684;48.342;10.096;2023-04-06T04:56:58;1.00;23.90
1381;DHT22;684;48.342;10.096;2023-04-06T04:59:25;1.00;24.20
1381;DHT22;684;48.342;10.096;2023-04-06T05:01:52;1.00;24.20
1381;DHT22;684;48.342;10.096;2023-04-06T05:04:19;1.00;24.20
1381;DHT22;684;48.342;10.096;2023-04-06T05:06:47;1.00;24.40
1381;DHT22;684;48.342;10.096;2023-04-06T05:09:14;1.00;24.70
1381;DHT22;684;48.342;10.096;2023-04-06T05:11:41;1.00;25.10
1381;DHT22;684;48.342;10.096;2023-04-06T05:14:07;1.10;25.50
1381;DHT22;684;48.342;10.096;2023-04-06T05:16:34;1.20;25.50
1381;DHT22;684;48.342;10.096;2023-04-06T05:19:01;1.40;24.80
1381;DHT22;684;48.342;10.096;2023-04-06T05:21:28;1.70;24.00
1381;DHT22;684;48.342;10.096;2023-04-06T05:23:57;2.10;23.10
1381;DHT22;684;48.342;10.096;2023-04-06T05:26:24;2.60;22.00
1381;DHT22;684;48.342;10.096;2023-04-06T05:28:51;3.10;20.70
1381;DHT22;684;48.342;10.096;2023-04-06T05:31:18;3.50;19.50
1381;DHT22;684;48.342;10.096;2023-04-06T05:33:44;3.80;18.70
1381;DHT22;684;48.342;10.096;2023-04-06T05:36:11;4.10;18.50
1381;DHT22;684;48.342;10.096;2023-04-06T05:38:38;4.40;17.80
1381;DHT22;684;48.342;10.096;2023-04-06T05:41:06;4.80;17.30
1381;DHT22;684;48.342;10.096;2023-04-06T05:43:33;5.10;16.60
1381;DHT22;684;48.342;10.096;2023-04-06T05:46:00;5.30;16.00
1381;DHT22;684;48.342;10.096;2023-04-06T05:48:27;5.50;15.90
1381;DHT22;684;48.342;10.096;2023-04-06T05:50:54;5.60;15.10
1381;DHT22;684;48.342;10.096;2023-04-06T05:53:21;5.60;14.90
1381;DHT22;684;48.342;10.096;2023-04-06T05:55:47;5.90;15.40
1381;DHT22;684;48.342;10.096;2023-04-06T05:58:16;6.10;14.40
1381;DHT22;684;48.342;10.096;2023-04-06T06:00:43;6.40;13.40
1381;DHT22;684;48.342;10.096;2023-04-06T06:03:11;6.70;12.80
1381;DHT22;684;48.342;10.096;2023-04-06T06:05:38;6.80;12.10
1381;DHT22;684;48.342;10.096;2023-04-06T06:08:05;6.70;12.10
1381;DHT22;684;48.342;10.096;2023-04-06T06:10:32;7.00;12.10
1381;DHT22;684;48.342;10.096;2023-04-06T06:12:59;7.30;11.70
1381;DHT22;684;48.342;10.096;2023-04-06T06:15:27;7.70;10.90
1381;DHT22;684;48.342;10.096;2023-04-06T06:17:54;7.90;10.20
1381;DHT22;684;48.342;10.096;2023-04-06T06:20:21;8.70;9.30
1381;DHT22;684;48.342;10.096;2023-04-06T06:22:48;9.50;8.10
1381;DHT22;684;48.342;10.096;2023-04-06T06:25:15;9.90;7.30
1381;DHT22;684;48.342;10.096;2023-04-06T06:27:41;10.50;6.50
1381;DHT22;684;48.342;10.096;2023-04-06T06:30:09;11.80;4.70
1381;DHT22;684;48.342;10.096;2023-04-06T06:32:37;12.80;2.90
1381;DHT22;684;48.342;10.096;2023-04-06T06:35:04;14.30;1.00
1381;DHT22;684;48.342;10.096;2023-04-06T06:37:31;15.60;1.00
1381;DHT22;684;48.342;10.096;2023-04-06T06:39:58;16.20;1.00
1381;DHT22;684;48.342;10.096;2023-04-06T06:42:25;16.90;1.00
1381;DHT22;684;48.342;10.096;2023-04-06T06:44:51;18.00;1.00
1381;DHT22;684;48.342;10.096;2023-04-06T06:47:18;19.30;1.00
1381;DHT22;684;48.342;10.096;2023-04-06T06:49:46;20.40;1.00
1381;DHT22;684;48.342;10.096;2023-04-06T06:52:13;21.50;1.00
1381;DHT22;684;48.342;10.096;2023-04-06T06:54:40;22.20;1.00
1381;DHT22;684;48.342;10.096;2023-04-06T06:57:07;22.90;1.00
1381;DHT22;684;48.342;10.096;2023-04-06T06:59:33;23.70;1.00
1381;DHT22;684;48.342;10.096;2023-04-06T07:02:00;24.60;1.00
1381;DHT22;684;48.342;10.096;2023-04-06T07:04:27;25.10;1.00
1381;DHT22;684;48.342;10.096;2023-04-06T07:06:55;25.90;1.00
1381;DHT22;684;48.342;10.096;2023-04-06T07:09:22;26.90;1.00
1381;DHT22;684;48.342;10.096;2023-04-06T07:11:49;27.80;1.00
1381;DHT22;684;48.342;10.096;2023-04-06T07:14:16;28.40;1.00
1381;DHT22;684;48.342;10.096;2023-04-06T07:16:43;28.80;1.00
1381;DHT22;684;48.342;10.096;2023-04-06T07:19:12;29.30;1.00
1381;DHT22;684;48.342;10.096;2023-04-06T07:21:39;29.60;1.00
1381;DHT22;684;48.342;10.096;2023-04-06T07:24:07;29.80;1.00
1381;DHT22;684;48.342;10.096;2023-04-06T07:26:34;30.00;1.00
1381;DHT22;684;48.342;10.096;2023-04-06T07:29:01;30.40;1.00
1381;DHT22;684;48.342;10.096;2023-04-06T07:31:28;30.90;1.00
1381;DHT22;684;48.342;10.096;2023-04-06T07:33:54;31.50;1.00
1381;DHT22;684;48.342;10.096;2023-04-06T07:36:21;32.10;1.00
1381;DHT22;684;48.342;10.096;2023-04-06T07:38:48;32.30;1.00
1381;DHT22;684;48.342;10.096;2023-04-06T07:41:16;32.60;1.00
1381;DHT22;684;48.342;10.096;2023-04-06T07:43:43;32.90;1.00
1381;DHT22;684;48.342;10.096;2023-04-06T07:46:10;33.20;1.00
1381;DHT22;684;48.342;10.096;2023-04-06T07:48:36;33.60;1.00
1381;DHT22;684;48.342;10.096;2023-04-06T07:51:04;34.00;1.00
1381;DHT22;684;48.342;10.096;2023-04-06T07:53:32;34.30;1.00
1381;DHT22;684;48.342;10.096;2023-04-06T07:55:59;34.70;1.00
1381;DHT22;684;48.342;10.096;2023-04-06T07:58:27;35.10;1.00
1381;DHT22;684;48.342;10.096;2023-04-06T08:00:56;35.40;1.00
1381;DHT22;684;48.342;10.096;2023-04-06T08:03:24;35.70;1.00
1381;DHT22;684;48.342;10.096;2023-04-06T08:05:51;35.70;1.00
1381;DHT22;684;48.342;10.096;2023-04-06T08:08:19;35.90;1.00
1381;DHT22;684;48.342;10.096;2023-04-06T08:10:46;36.00;1.00
1381;DHT22;684;48.342;10.096;2023-04-06T08:13:13;36.30;1.00
1381;DHT22;684;48.342;10.096;2023-04-06T08:15:41;36.50;1.00
1381;DHT22;684;48.342;10.096;2023-04-06T08:18:08;36.90;1.00
1381;DHT22;684;48.342;10.096;2023-04-06T08:20:35;36.90;1.00
1381;DHT22;684;48.342;10.096;2023-04-06T08:23:02;36.90;1.00
1381;DHT22;684;48.342;10.096;2023-04-06T08:25:29;37.00;1.00
1381;DHT22;684;48.342;10.096;2023-04-06T08:27:56;37.00;1.00
1381;DHT22;684;48.342;10.096;2023-04-06T08:30:23;37.00;1.00
1381;DHT22;684;48.342;10.096;2023-04-06T08:32:51;37.20;1.00
1381;DHT22;684;48.342;10.096;2023-04-06T08:35:18;37.60;1.00
1381;DHT22;684;48.342;10.096;2023-04-06T08:37:45;38.00;1.00
1381;DHT22;684;48.342;10.096;2023-04-06T08:40:12;38.30;1.00
1381;DHT22;684;48.342;10.096;2023-04-06T08:42:40;38.70;1.00
1381;DHT22;684;48.342;10.096;2023-04-06T08:45:09;38.80;1.00
1381;DHT22;684;48.342;10.096;2023-04-06T08:47:36;39.20;1.00
1381;DHT22;684;48.342;10.096;2023-04-06T08:50:06;39.40;1.00
1381;DHT22;684;48.342;10.096;2023-04-06T08:52:33;39.60;1.00
1381;DHT22;684;48.342;10.096;2023-04-06T08:55:00;39.80;1.00
1381;DHT22;684;48.342;10.096;2023-04-06T08:57:27;40.20;1.00
1381;DHT22;684;48.342;10.096;2023-04-06T08:59:55;40.60;1.00
1381;DHT22;684;48.342;10.096;2023-04-06T09:02:22;40.70;1.00
1381;DHT22;684;48.342;10.096;2023-04-06T09:04:53;40.80;1.00
1381;DHT22;684;48.342;10.096;2023-04-06T09:07:21;41.00;1.00
1381;DHT22;684;48.342;10.096;2023-04-06T09:09:48;41.00;1.00
1381;DHT22;684;48.342;10.096;2023-04-06T09:12:25;41.40;1.00
1381;DHT22;684;48.342;10.096;2023-04-06T09:14:52;41.40;1.00
1381;DHT22;684;48.342;10.096;2023-04-06T09:17:22;41.00;1.00
1381;DHT22;684;48.342;10.096;2023-04-06T09:19:50;39.60;1.00
1381;DHT22;684;48.342;10.096;2023-04-06T09:22:17;39.40;1.00
1381;DHT22;684;48.342;10.096;2023-04-06T09:24:46;39.70;1.00
1381;DHT22;684;48.342;10.096;2023-04-06T09:27:14;39.90;1.00
1381;DHT22;684;48.342;10.096;2023-04-06T09:29:41;40.40;1.00
1381;DHT22;684;48.342;10.096;2023-04-06T09:32:09;40.80;1.00
1381;DHT22;684;48.342;10.096;2023-04-06T09:34:37;40.90;1.00
1381;DHT22;684;48.342;10.096;2023-04-06T09:37:12;41.10;1.00
1381;DHT22;684;48.342;10.096;2023-04-06T09:39:39;41.20;1.00
1381;DHT22;684;48.342;10.096;2023-04-06T09:42:08;41.60;1.00
1381;DHT22;684;48.342;10.096;2023-04-06T09:44:35;41.90;1.00
1381;DHT22;684;48.342;10.096;2023-04-06T09:47:05;42.30;1.00
1381;DHT22;684;48.342;10.096;2023-04-06T09:49:33;42.30;1.00
1381;DHT22;684;48.342;10.096;2023-04-06T09:52:02;42.40;1.00
1381;DHT22;684;48.342;10.096;2023-04-06T09:54:31;42.50;1.00
1381;DHT22;684;48.342;10.096;2023-04-06T09:57:03;42.30;1.00
1381;DHT22;684;48.342;10.096;2023-04-06T09:59:39;42.40;1.00
1381;DHT22;684;48.342;10.096;2023-04-06T10:02:17;42.30;1.00
1381;DHT22;684;48.342;10.096;2023-04-06T10:04:52;41.90;1.00
1381;DHT22;684;48.342;10.096;2023-04-06T10:07:21;41.70;1.00
1381;DHT22;684;48.342;10.096;2023-04-06T10:09:48;41.80;1.00
1381;DHT22;684;48.342;10.096;2023-04-06T10:12:16;41.60;1.00
1381;DHT22;684;48.342;10.096;2023-04-06T10:14:46;41.80;1.00
1381;DHT22;684;48.342;10.096;2023-04-06T10:17:13;41.90;1.00
1381;DHT22;684;48.342;10.096;2023-04-06T10:19:46;42.10;1.00
1381;DHT22;684;48.342;10.096;2023-04-06T10:22:21;42.30;1.00
1381;DHT22;684;48.342;10.096;2023-04-06T10:24:49;42.50;1.00
1381;DHT22;684;48.342;10.096;2023-04-06T10:27:16;41.80;1.00
1381;DHT22;684;48.342;10.096;2023-04-06T10:29:46;41.70;1.00
1381;DHT22;684;48.342;10.096;2023-04-06T10:32:14;41.90;1.00
1381;DHT22;684;48.342;10.096;2023-04-06T10:34:40;42.20;1.00
1381;DHT22;684;48.342;10.096;2023-04-06T10:37:12;42.20;1.00
1381;DHT22;684;48.342;10.096;2023-04-06T10:39:46;42.00;1.00
1381;DHT22;684;48.342;10.096;2023-04-06T10:42:13;41.60;1.00
1381;DHT22;684;48.342;10.096;2023-04-06T10:44:42;41.10;1.00
1381;DHT22;684;48.342;10.096;2023-04-06T10:47:17;40.70;1.00
1381;DHT22;684;48.342;10.096;2023-04-06T10:49:44;40.30;1.00
1381;DHT22;684;48.342;10.096;2023-04-06T10:52:11;40.20;1.00
1381;DHT22;684;48.342;10.096;2023-04-06T10:54:41;39.50;1.00
1381;DHT22;684;48.342;10.096;2023-04-06T10:57:09;39.10;1.00
1381;DHT22;684;48.342;10.096;2023-04-06T10:59:36;38.60;1.00
1381;DHT22;684;48.342;10.096;2023-04-06T11:02:02;38.20;1.00
1381;DHT22;684;48.342;10.096;2023-04-06T11:04:30;37.50;1.00
1381;DHT22;684;48.342;10.096;2023-04-06T11:06:57;37.00;1.00
1381;DHT22;684;48.342;10.096;2023-04-06T11:09:24;36.70;1.00
1381;DHT22;684;48.342;10.096;2023-04-06T11:11:52;36.10;1.00
1381;DHT22;684;48.342;10.096;2023-04-06T11:14:19;35.50;1.00
1381;DHT22;684;48.342;10.096;2023-04-06T11:16:47;33.90;1.00
1381;DHT22;684;48.342;10.096;2023-04-06T11:19:15;31.90;1.00
1381;DHT22;684;48.342;10.096;2023-04-06T11:21:45;29.70;1.00
1381;DHT22;684;48.342;10.096;2023-04-06T11:24:14;27.80;1.00
1381;DHT22;684;48.342;10.096;2023-04-06T11:26:43;26.30;1.00
1381;DHT22;684;48.342;10.096;2023-04-06T11:29:11;25.20;1.00
1381;DHT22;684;48.342;10.096;2023-04-06T11:31:39;24.30;1.00
1381;DHT22;684;48.342;10.096;2023-04-06T11:34:13;23.40;1.00
1381;DHT22;684;48.342;10.096;2023-04-06T11:36:44;22.60;1.00
1381;DHT22;684;48.342;10.096;2023-04-06T11:39:12;22.10;1.00
1381;DHT22;684;48.342;10.096;2023-04-06T11:41:39;21.50;1.00
1381;DHT22;684;48.342;10.096;2023-04-06T11:44:06;21.00;1.00
1381;DHT22;684;48.342;10.096;2023-04-06T11:46:33;20.50;1.00
1381;DHT22;684;48.342;10.096;2023-04-06T11:49:00;20.00;1.00
1381;DHT22;684;48.342;10.096;2023-04-06T11:51:28;19.60;1.00
1381;DHT22;684;48.342;10.096;2023-04-06T11:53:56;19.20;1.00
1381;DHT22;684;48.342;10.096;2023-04-06T11:56:24;18.90;1.00
1381;DHT22;684;48.342;10.096;2023-04-06T11:58:52;18.70;1.00
1381;DHT22;684;48.342;10.096;2023-04-06T12:01:19;18.60;1.00
1381;DHT22;684;48.342;10.096;2023-04-06T12:03:45;18.30;1.00
1381;DHT22;684;48.342;10.096;2023-04-06T12:06:13;18.10;1.00
1381;DHT22;684;48.342;10.096;2023-04-06T12:08:40;17.90;1.00
1381;DHT22;684;48.342;10.096;2023-04-06T12:11:08;17.70;1.00
1381;DHT22;684;48.342;10.096;2023-04-06T12:13:35;17.50;1.00
1381;DHT22;684;48.342;10.096;2023-04-06T12:16:01;17.40;1.00
1381;DHT22;684;48.342;10.096;2023-04-06T12:18:29;17.20;1.00
1381;DHT22;684;48.342;10.096;2023-04-06T12:20:56;17.00;1.00
1381;DHT22;684;48.342;10.096;2023-04-06T12:23:23;16.90;1.00
1381;DHT22;684;48.342;10.096;2023-04-06T12:25:49;16.70;1.00
1381;DHT22;684;48.342;10.096;2023-04-06T12:28:18;16.60;1.00
1381;DHT22;684;48.342;10.096;2023-04-06T12:30:48;16.40;1.00
1381;DHT22;684;48.342;10.096;2023-04-06T12:33:15;16.40;1.00
1381;DHT22;684;48.342;10.096;2023-04-06T12:35:42;16.10;1.00
1381;DHT22;684;48.342;10.096;2023-04-06T12:38:09;16.10;1.00
1381;DHT22;684;48.342;10.096;2023-04-06T12:40:37;16.00;1.00
1381;DHT22;684;48.342;10.096;2023-04-06T12:43:04;15.90;1.00
1381;DHT22;684;48.342;10.096;2023-04-06T12:45:32;15.90;1.00
1381;DHT22;684;48.342;10.096;2023-04-06T12:47:59;15.70;1.00
1381;DHT22;684;48.342;10.096;2023-04-06T12:50:26;15.60;1.00
1381;DHT22;684;48.342;10.096;2023-04-06T12:52:53;15.60;1.00
1381;DHT22;684;48.342;10.096;2023-04-06T12:55:20;15.60;1.00
1381;DHT22;684;48.342;10.096;2023-04-06T12:57:47;15.40;1.00
1381;DHT22;684;48.342;10.096;2023-04-06T13:00:14;15.30;1.00
1381;DHT22;684;48.342;10.096;2023-04-06T13:02:42;15.30;1.00
1381;DHT22;684;48.342;10.096;2023-04-06T13:05:13;15.30;1.00
1381;DHT22;684;48.342;10.096;2023-04-06T13:07:40;15.20;1.00
1381;DHT22;684;48.342;10.096;2023-04-06T13:10:07;15.10;1.00
1381;DHT22;684;48.342;10.096;2023-04-06T13:12:34;15.00;1.00
1381;DHT22;684;48.342;10.096;2023-04-06T13:15:01;15.00;1.00
1381;DHT22;684;48.342;10.096;2023-04-06T13:17:29;14.90;1.00
1381;DHT22;684;48.342;10.096;2023-04-06T13:19:57;14.90;1.00
1381;DHT22;684;48.342;10.096;2023-04-06T13:22:24;14.90;1.00
1381;DHT22;684;48.342;10.096;2023-04-06T13:24:51;14.90;1.00
1381;DHT22;684;48.342;10.096;2023-04-06T13:27:17;14.90;1.00
1381;DHT22;684;48.342;10.096;2023-04-06T13:29:44;14.90;1.00
1381;DHT22;684;48.342;10.096;2023-04-06T13:32:11;14.90;1.00
1381;DHT22;684;48.342;10.096;2023-04-06T13:34:38;14.90;1.00
1381;DHT22;684;48.342;10.096;2023-04-06T13:37:07;14.90;1.00
1381;DHT22;684;48.342;10.096;2023-04-06T13:39:33;14.90;1.00
1381;DHT22;684;48.342;10.096;2023-04-06T13:42:00;14.80;1.00
1381;DHT22;684;48.342;10.096;2023-04-06T13:44:28;14.80;1.00
1381;DHT22;684;48.342;10.096;2023-04-06T13:46:56;14.70;1.00
1381;DHT22;684;48.342;10.096;2023-04-06T13:49:23;14.60;1.00
1381;DHT22;684;48.342;10.096;2023-04-06T13:51:50;14.50;1.00
1381;DHT22;684;48.342;10.096;2023-04-06T13:54:19;14.40;1.00
1381;DHT22;684;48.342;10.096;2023-04-06T13:56:46;14.40;1.00
1381;DHT22;684;48.342;10.096;2023-04-06T13:59:12;14.30;1.00
1381;DHT22;684;48.342;10.096;2023-04-06T14:01:40;14.30;1.00
1381;DHT22;684;48.342;10.096;2023-04-06T14:04:06;14.20;1.00
1381;DHT22;684;48.342;10.096;2023-04-06T14:06:33;14.20;1.00
1381;DHT22;684;48.342;10.096;2023-04-06T14:09:00;14.20;1.00
1381;DHT22;684;48.342;10.096;2023-04-06T14:11:28;14.20;1.00
1381;DHT22;684;48.342;10.096;2023-04-06T14:13:55;14.20;1.00
1381;DHT22;684;48.342;10.096;2023-04-06T14:16:23;14.10;1.00
1381;DHT22;684;48.342;10.096;2023-04-06T14:18:50;14.20;1.00
1381;DHT22;684;48.342;10.096;2023-04-06T14:21:17;14.20;1.00
1381;DHT22;684;48.342;10.096;2023-04-06T14:23:45;14.10;1.00
1381;DHT22;684;48.342;10.096;2023-04-06T14:26:12;14.20;1.00
1381;DHT22;684;48.342;10.096;2023-04-06T14:28:41;14.20;1.00
1381;DHT22;684;48.342;10.096;2023-04-06T14:31:12;14.30;1.00
1381;DHT22;684;48.342;10.096;2023-04-06T14:33:40;14.30;1.00
1381;DHT22;684;48.342;10.096;2023-04-06T14:36:07;14.30;1.00
1381;DHT22;684;48.342;10.096;2023-04-06T14:38:35;14.20;1.00
1381;DHT22;684;48.342;10.096;2023-04-06T14:41:02;14.20;1.00
1381;DHT22;684;48.342;10.096;2023-04-06T14:43:28;14.10;1.00
1381;DHT22;684;48.342;10.096;2023-04-06T14:46:00;14.10;1.00
1381;DHT22;684;48.342;10.096;2023-04-06T14:48:27;14.10;1.00
1381;DHT22;684;48.342;10.096;2023-04-06T14:50:55;14.10;1.00
1381;DHT22;684;48.342;10.096;2023-04-06T14:53:22;14.10;1.00
1381;DHT22;684;48.342;10.096;2023-04-06T14:55:49;14.10;1.00
1381;DHT22;684;48.342;10.096;2023-04-06T14:58:17;14.20;1.00
1381;DHT22;684;48.342;10.096;2023-04-06T15:00:43;14.20;1.00
1381;DHT22;684;48.342;10.096;2023-04-06T15:03:12;14.30;1.00
1381;DHT22;684;48.342;10.096;2023-04-06T15:05:39;14.20;1.00
1381;DHT22;684;48.342;10.096;2023-04-06T15:08:06;14.20;1.00
1381;DHT22;684;48.342;10.096;2023-04-06T15:10:34;14.10;1.00
1381;DHT22;684;48.342;10.096;2023-04-06T15:13:02;14.10;1.00
1381;DHT22;684;48.342;10.096;2023-04-06T15:15:28;14.10;1.00
1381;DHT22;684;48.342;10.096;2023-04-06T15:17:55;14.10;1.00
1381;DHT22;684;48.342;10.096;2023-04-06T15:20:23;14.10;1.00
1381;DHT22;684;48.342;10.096;2023-04-06T15:22:50;14.10;1.00
1381;DHT22;684;48.342;10.096;2023-04-06T15:25:17;14.10;1.00
1381;DHT22;684;48.342;10.096;2023-04-06T15:27:43;14.10;1.00
1381;DHT22;684;48.342;10.096;2023-04-06T15:30:11;14.00;1.00
1381;DHT22;684;48.342;10.096;2023-04-06T15:32:38;14.00;1.00
1381;DHT22;684;48.342;10.096;2023-04-06T15:35:11;13.90;1.00
1381;DHT22;684;48.342;10.096;2023-04-06T15:37:39;13.90;1.00
1381;DHT22;684;48.342;10.096;2023-04-06T15:40:07;13.80;1.00
1381;DHT22;684;48.342;10.096;2023-04-06T15:42:38;13.80;1.00
1381;DHT22;684;48.342;10.096;2023-04-06T15:45:08;13.80;1.00
1381;DHT22;684;48.342;10.096;2023-04-06T15:47:34;13.80;1.00
1381;DHT22;684;48.342;10.096;2023-04-06T15:50:02;13.80;1.00
1381;DHT22;684;48.342;10.096;2023-04-06T15:52:28;13.80;1.00
1381;DHT22;684;48.342;10.096;2023-04-06T15:54:56;13.70;1.00
1381;DHT22;684;48.342;10.096;2023-04-06T15:57:26;13.70;1.00
1381;DHT22;684;48.342;10.096;2023-04-06T15:59:53;13.60;1.00
1381;DHT22;684;48.342;10.096;2023-04-06T16:04:53;13.50;1.00
1381;DHT22;684;48.342;10.096;2023-04-06T16:07:20;13.50;1.00
1381;DHT22;684;48.342;10.096;2023-04-06T16:09:47;13.40;1.00
1381;DHT22;684;48.342;10.096;2023-04-06T16:12:16;13.40;1.00
1381;DHT22;684;48.342;10.096;2023-04-06T16:14:43;13.30;1.00
1381;DHT22;684;48.342;10.096;2023-04-06T16:17:10;13.30;1.00
1381;DHT22;684;48.342;10.096;2023-04-06T16:19:37;13.30;1.00